Time;durP1;ratioP1;P1;durP2;ratioP2;P2;SDS_P1;SDS_P2;PMS_P1;PMS_P2;Temp;Humidity;BMP_temperature;BMP_pressure;BME280_temperature;BME280_humidity;BME280_pressure;Samples;Min_cycle;Max_cycle;Signal;HPM_P1;HPM_P2
2022/05/29 00:02:11;;;;;;;46.25;6.05;;;36.00;22.20;;;;;;4971914;28;21070;-68
2022/05/29 00:04:41;;;;;;;76.28;7.30;;;36.00;22.10;;;;;;4971128;28;20494;-66
2022/05/29 00:07:13;;;;;;;60.92;5.60;;;36.10;22.10;;;;;;4969253;28;20068;-68
2022/05/29 00:09:43;;;;;;;42.40;5.07;;;35.90;21.90;;;;;;4970290;28;20056;-66
2022/05/29 00:12:11;;;;;;;39.83;4.97;;;35.80;22.30;;;;;;4970475;28;20533;-67
2022/05/29 00:14:39;;;;;;;52.00;5.45;;;35.70;22.10;;;;;;4971022;28;20549;-68
2022/05/29 00:17:06;;;;;;;69.93;6.50;;;35.60;22.10;;;;;;4971550;28;20386;-68
2022/05/29 00:19:33;;;;;;;64.15;5.28;;;35.60;21.90;;;;;;4970767;28;20108;-68
2022/05/29 00:22:00;;;;;;;73.75;6.72;;;35.60;22.00;;;;;;4971700;28;20146;-66
2022/05/29 00:24:27;;;;;;;70.78;7.40;;;35.40;22.00;;;;;;4973512;28;20059;-67
2022/05/29 00:26:54;;;;;;;174.68;12.02;;;35.20;22.00;;;;;;4971308;28;20064;-68
2022/05/29 00:29:22;;;;;;;88.93;7.45;;;35.10;21.90;;;;;;4969654;28;21032;-67
2022/05/29 00:31:48;;;;;;;64.85;5.85;;;35.00;22.00;;;;;;4971141;28;20535;-66
2022/05/29 00:34:15;;;;;;;70.35;7.82;;;35.00;21.80;;;;;;4970966;28;20063;-68
2022/05/29 00:36:44;;;;;;;69.13;7.68;;;34.90;21.80;;;;;;4970644;28;20061;-66
2022/05/29 00:39:13;;;;;;;104.43;9.25;;;34.70;21.80;;;;;;4954360;28;20100;-72
2022/05/29 00:41:40;;;;;;;61.88;7.18;;;34.70;22.00;;;;;;4973973;28;20074;-69
2022/05/29 00:44:14;;;;;;;112.05;7.93;;;34.70;22.10;;;;;;4969966;28;20062;-69
2022/05/29 00:46:47;;;;;;;194.05;13.18;;;34.60;21.80;;;;;;4970019;28;20117;-70
2022/05/29 00:49:15;;;;;;;113.00;10.15;;;34.50;21.90;;;;;;4971341;28;20069;-65
2022/05/29 00:51:50;;;;;;;131.48;11.70;;;34.20;22.10;;;;;;4954137;28;20147;-67
2022/05/29 00:54:17;;;;;;;134.55;11.95;;;34.20;22.30;;;;;;4954410;28;20088;-71
2022/05/29 00:56:45;;;;;;;147.27;10.50;;;34.10;22.30;;;;;;4969898;28;20157;-64
2022/05/29 00:59:20;;;;;;;139.52;11.70;;;34.00;22.40;;;;;;4969150;28;20117;-68
2022/05/29 01:01:46;;;;;;;150.30;13.35;;;33.80;22.80;;;;;;4968509;28;20600;-63
2022/05/29 01:04:13;;;;;;;232.52;17.17;;;33.60;22.90;;;;;;4967971;28;20157;-65
2022/05/29 01:06:40;;;;;;;122.65;12.68;;;33.20;23.10;;;;;;4969456;28;20071;-70
2022/05/29 01:09:09;;;;;;;194.65;14.57;;;33.30;23.20;;;;;;4967936;28;20162;-72
2022/05/29 01:12:00;;;;;;;121.25;11.27;;;33.10;23.20;;;;;;4969645;28;20084;-66
2022/05/29 01:14:46;;;;;;;102.18;9.68;;;32.90;23.30;;;;;;4970059;28;20078;-68
2022/05/29 01:17:24;;;;;;;88.95;7.45;;;32.80;23.40;;;;;;4969733;28;20073;-71
2022/05/29 01:20:02;;;;;;;188.05;12.95;;;32.70;23.80;;;;;;4970658;28;20498;-69
2022/05/29 01:23:00;;;;;;;94.15;8.57;;;32.80;23.60;;;;;;4970215;28;20503;-67
2022/05/29 01:25:32;;;;;;;;;;;32.80;23.60;;;;;;4970966;28;20102;-73
2022/05/29 01:28:29;;;;;;;56.45;5.30;;;32.60;23.60;;;;;;4971442;28;19991;-72
2022/05/29 01:31:10;;;;;;;33.90;3.85;;;32.50;23.70;;;;;;4968993;28;20089;-74
2022/05/29 01:33:57;;;;;;;36.85;4.40;;;32.40;23.90;;;;;;4972178;28;20105;-71
2022/05/29 01:36:42;;;;;;;62.20;5.55;;;32.20;23.90;;;;;;4971661;28;20159;-73
2022/05/29 01:39:29;;;;;;;43.03;4.93;;;32.00;24.20;;;;;;4984762;28;20547;-74
2022/05/29 01:41:57;;;;;;;;;;;32.00;24.30;;;;;;4954837;28;20072;-76
2022/05/29 01:44:41;;;;;;;35.35;3.50;;;32.10;24.40;;;;;;4970178;28;19956;-73
2022/05/29 01:47:26;;;;;;;40.17;4.45;;;32.00;24.50;;;;;;4953764;28;20081;-77
2022/05/29 01:50:00;;;;;;;31.67;4.25;;;32.00;24.60;;;;;;4971127;28;20160;-74
2022/05/29 01:52:35;;;;;;;42.97;4.43;;;31.90;24.60;;;;;;4957125;28;20128;-73
2022/05/29 01:55:08;;;;;;;55.85;5.38;;;31.80;24.80;;;;;;4954777;28;20163;-76
2022/05/29 01:57:39;;;;;;;43.08;3.85;;;31.70;24.90;;;;;;4969896;28;20449;-75
2022/05/29 02:00:18;;;;;;;27.38;3.22;;;31.60;25.00;;;;;;4955887;28;20145;-76
2022/05/29 02:02:58;;;;;;;22.00;3.03;;;31.50;25.20;;;;;;4972716;28;20111;-73
2022/05/29 02:05:40;;;;;;;28.55;3.03;;;31.40;25.30;;;;;;4956981;28;20143;-73
2022/05/29 02:08:21;;;;;;;33.85;4.00;;;31.30;25.40;;;;;;4950835;28;20153;-70
2022/05/29 02:10:54;;;;;;;26.45;3.50;;;31.20;25.70;;;;;;4969198;28;20082;-73
2022/05/29 02:13:38;;;;;;;37.03;3.80;;;31.10;25.80;;;;;;4954815;28;20132;-75
2022/05/29 02:16:28;;;;;;;30.45;3.00;;;31.10;26.00;;;;;;4971956;28;20558;-72
2022/05/29 02:18:58;;;;;;;31.33;3.00;;;31.00;26.00;;;;;;4967110;28;20536;-75
2022/05/29 02:21:28;;;;;;;46.72;4.93;;;30.90;26.10;;;;;;4972926;28;20549;-74
2022/05/29 02:23:58;;;;;;;25.58;3.10;;;30.80;26.20;;;;;;4972648;28;20135;-71
2022/05/29 02:26:29;;;;;;;23.40;3.08;;;30.80;26.30;;;;;;4970454;28;20204;-72
2022/05/29 02:29:02;;;;;;;20.77;2.70;;;30.70;26.50;;;;;;4970760;28;20098;-72
2022/05/29 02:31:42;;;;;;;18.55;2.45;;;30.60;26.80;;;;;;4972199;28;20070;-73
2022/05/29 02:34:18;;;;;;;26.58;3.30;;;30.60;26.80;;;;;;4974673;28;20087;-74
2022/05/29 02:36:50;;;;;;;26.08;3.15;;;30.50;27.00;;;;;;4970603;28;20074;-75
2022/05/29 02:39:23;;;;;;;31.92;4.90;;;30.40;27.40;;;;;;4970507;28;20497;-73
2022/05/29 02:42:01;;;;;;;27.27;5.07;;;30.40;27.50;;;;;;4970431;28;20078;-75
2022/05/29 02:44:42;;;;;;;24.55;6.32;;;30.30;27.50;;;;;;4970193;28;20078;-69
2022/05/29 02:47:20;;;;;;;76.20;8.32;;;30.10;27.80;;;;;;4952156;28;20074;-71
2022/05/29 02:49:56;;;;;;;36.67;4.95;;;29.90;27.90;;;;;;4970794;28;20101;-69
2022/05/29 02:52:22;;;;;;;41.67;4.50;;;29.80;28.20;;;;;;4969114;28;20078;-68
2022/05/29 02:54:49;;;;;;;40.80;4.57;;;29.70;28.40;;;;;;4970860;28;20212;-74
2022/05/29 02:57:15;;;;;;;46.50;4.85;;;29.60;28.50;;;;;;4968741;28;20074;-70
2022/05/29 02:59:47;;;;;;;22.85;3.40;;;29.60;28.60;;;;;;4969013;28;20197;-75
2022/05/29 03:02:33;;;;;;;21.92;3.22;;;29.50;28.80;;;;;;4968109;28;20858;-75
2022/05/29 03:05:17;;;;;;;16.20;2.95;;;29.50;29.00;;;;;;4970760;28;20070;-73
2022/05/29 03:08:26;;;;;;;24.42;2.95;;;29.30;29.00;;;;;;4969476;28;20168;-73
2022/05/29 03:11:13;;;;;;;28.60;3.03;;;29.30;29.20;;;;;;4953009;28;20096;-73
2022/05/29 03:14:08;;;;;;;21.42;2.88;;;29.30;29.40;;;;;;4939831;23;20119;-73
2022/05/29 03:16:43;;;;;;;18.92;3.58;;;29.20;29.40;;;;;;4929870;29;20170;-73
2022/05/29 03:19:50;;;;;;;21.88;3.08;;;29.10;29.40;;;;;;4929909;29;20086;-72
2022/05/29 03:22:44;;;;;;;13.50;2.53;;;29.00;29.50;;;;;;4930878;29;20534;-73
2022/05/29 03:25:20;;;;;;;22.33;2.80;;;29.00;29.60;;;;;;4931165;29;20111;-72
2022/05/29 03:27:52;;;;;;;11.77;2.10;;;29.00;29.70;;;;;;4945073;29;20074;-74
2022/05/29 03:30:37;;;;;;;10.45;2.40;;;28.90;29.80;;;;;;4914912;29;20110;-72
2022/05/29 03:33:07;;;;;;;13.35;2.03;;;28.90;29.80;;;;;;4930129;29;20096;-72
2022/05/29 03:35:53;;;;;;;17.20;2.35;;;28.80;29.80;;;;;;4930184;29;20075;-73
2022/05/29 03:38:20;;;;;;;16.70;2.60;;;28.80;30.00;;;;;;4929837;29;20078;-71
2022/05/29 03:40:47;;;;;;;14.15;2.22;;;28.70;30.00;;;;;;4931774;29;20132;-73
2022/05/29 03:43:14;;;;;;;11.73;2.63;;;28.70;30.10;;;;;;4915118;29;20071;-71
2022/05/29 03:45:40;;;;;;;17.90;2.55;;;28.70;30.20;;;;;;4931014;29;20071;-73
2022/05/29 03:48:07;;;;;;;14.65;2.63;;;28.70;30.20;;;;;;4929889;29;20095;-72
2022/05/29 03:50:36;;;;;;;24.85;3.28;;;28.60;30.30;;;;;;4930247;29;20202;-71
2022/05/29 03:53:04;;;;;;;21.55;3.00;;;28.70;30.40;;;;;;4929655;29;20087;-72
2022/05/29 03:55:34;;;;;;;30.60;5.68;;;28.60;30.40;;;;;;4932176;29;20510;-73
2022/05/29 03:58:00;;;;;;;30.90;4.05;;;28.60;30.50;;;;;;4929648;29;20170;-72
2022/05/29 04:00:27;;;;;;;19.58;3.22;;;28.60;30.60;;;;;;4928571;29;20122;-73
2022/05/29 04:02:54;;;;;;;15.00;2.88;;;28.60;30.50;;;;;;4932436;29;20150;-72
2022/05/29 04:05:23;;;;;;;16.00;2.53;;;28.50;30.50;;;;;;4918482;29;20446;-72
2022/05/29 04:13:38;;;;;;;26.83;2.38;;;28.50;30.60;;;;;;4925234;29;20555;-71
2022/05/29 04:16:05;;;;;;;20.83;3.20;;;28.40;30.40;;;;;;4935649;29;20082;-72
2022/05/29 04:18:31;;;;;;;18.80;3.28;;;28.40;30.40;;;;;;4933722;29;20539;-72
2022/05/29 04:20:58;;;;;;;21.10;2.83;;;28.30;30.40;;;;;;4916947;29;20107;-72
2022/05/29 04:23:24;;;;;;;18.90;3.00;;;28.30;30.30;;;;;;4932471;29;20549;-72
2022/05/29 04:25:51;;;;;;;30.95;4.00;;;28.20;30.20;;;;;;4935224;29;20139;-71
2022/05/29 04:28:18;;;;;;;25.67;3.40;;;28.20;30.20;;;;;;4933754;29;20162;-74
2022/05/29 04:30:45;;;;;;;26.80;3.67;;;28.20;30.10;;;;;;4917969;29;20166;-70
2022/05/29 04:33:12;;;;;;;28.42;2.95;;;28.20;30.40;;;;;;4934483;29;20075;-72
2022/05/29 04:35:42;;;;;;;31.35;3.17;;;28.30;30.80;;;;;;4931297;29;20094;-69
2022/05/29 04:38:09;;;;;;;20.80;2.78;;;28.20;31.00;;;;;;4932724;29;20102;-71
2022/05/29 04:40:40;;;;;;;10.02;1.98;;;28.10;31.20;;;;;;4934600;29;20617;-71
2022/05/29 04:43:10;;;;;;;13.00;1.65;;;28.10;31.50;;;;;;4932523;29;20102;-71
2022/05/29 04:45:39;;;;;;;11.52;2.50;;;28.10;31.50;;;;;;4933477;29;20138;-70
2022/05/29 04:48:07;;;;;;;19.02;2.45;;;28.10;32.30;;;;;;4934038;29;20524;-70
2022/05/29 04:50:36;;;;;;;9.02;1.65;;;28.00;32.00;;;;;;4911791;29;20084;-71
2022/05/29 04:53:02;;;;;;;15.23;1.73;;;28.00;32.40;;;;;;4932533;29;20602;-71
2022/05/29 04:55:29;;;;;;;7.45;2.10;;;28.00;32.60;;;;;;4932498;29;20099;-71
2022/05/29 04:57:56;;;;;;;13.27;2.25;;;28.00;32.80;;;;;;4932462;29;20539;-72
2022/05/29 05:00:23;;;;;;;7.30;2.25;;;28.00;33.10;;;;;;4932373;29;20095;-71
2022/05/29 05:02:49;;;;;;;11.82;2.28;;;28.00;33.10;;;;;;4933241;29;20083;-71
2022/05/29 05:05:17;;;;;;;6.47;1.92;;;28.00;33.10;;;;;;4932841;29;20523;-71
2022/05/29 05:07:43;;;;;;;9.65;2.00;;;27.80;33.20;;;;;;4934100;29;20083;-71
2022/05/29 05:10:12;;;;;;;11.23;2.10;;;27.80;33.30;;;;;;4932716;29;20079;-70
2022/05/29 05:12:39;;;;;;;9.40;1.85;;;27.80;33.40;;;;;;4931623;29;20601;-71
2022/05/29 05:15:07;;;;;;;10.38;2.92;;;27.70;32.70;;;;;;4915738;29;20094;-70
2022/05/29 05:17:36;;;;;;;12.35;2.95;;;27.80;32.70;;;;;;4927224;29;20171;-71
2022/05/29 05:20:04;;;;;;;16.77;3.28;;;27.90;32.50;;;;;;4933782;29;20135;-73
2022/05/29 05:22:31;;;;;;;6.10;1.65;;;27.80;32.00;;;;;;4932369;29;20610;-70
2022/05/29 05:24:57;;;;;;;6.53;1.38;;;27.70;32.10;;;;;;4932828;29;20079;-72
2022/05/29 05:27:23;;;;;;;12.70;2.38;;;27.70;32.20;;;;;;4932669;29;20091;-71
2022/05/29 05:29:50;;;;;;;6.60;1.67;;;27.70;32.40;;;;;;4932936;29;20099;-71
2022/05/29 05:32:16;;;;;;;6.90;1.67;;;27.70;32.50;;;;;;4932737;29;20113;-70
2022/05/29 05:34:42;;;;;;;9.85;1.92;;;27.60;32.80;;;;;;4933707;29;20182;-72
2022/05/29 05:37:11;;;;;;;11.18;2.03;;;27.50;33.00;;;;;;4932020;29;20129;-71
2022/05/29 05:39:38;;;;;;;16.55;1.77;;;27.50;33.10;;;;;;4933371;29;20118;-69
2022/05/29 05:42:05;;;;;;;5.40;1.52;;;27.50;33.20;;;;;;4931849;29;20092;-70
2022/05/29 05:44:32;;;;;;;12.05;1.88;;;27.40;33.40;;;;;;4911558;29;20556;-69
2022/05/29 05:46:58;;;;;;;8.85;2.15;;;27.40;33.60;;;;;;4932685;29;20102;-70
2022/05/29 05:49:25;;;;;;;12.63;2.08;;;27.40;33.70;;;;;;4931420;29;20096;-70
2022/05/29 05:51:51;;;;;;;7.20;1.80;;;27.40;33.90;;;;;;4931725;29;20494;-70
2022/05/29 05:54:19;;;;;;;9.43;2.33;;;27.30;34.00;;;;;;4932513;29;20071;-70
2022/05/29 05:56:50;;;;;;;12.57;2.00;;;27.30;35.00;;;;;;4930938;29;20079;-71
2022/05/29 05:59:17;;;;;;;11.40;2.00;;;27.30;34.50;;;;;;4931871;29;20098;-70
2022/05/29 06:01:44;;;;;;;13.10;2.40;;;27.30;34.50;;;;;;4931611;29;20064;-69
2022/05/29 06:04:10;;;;;;;20.33;2.90;;;27.30;34.50;;;;;;4933034;29;20558;-70
2022/05/29 06:06:37;;;;;;;20.42;3.10;;;27.30;34.70;;;;;;4930587;29;20204;-70
2022/05/29 06:09:03;;;;;;;19.77;3.30;;;27.40;34.70;;;;;;4931068;29;20085;-72
2022/05/29 06:11:30;;;;;;;23.08;3.58;;;27.30;34.60;;;;;;4929456;29;20106;-70
2022/05/29 06:13:56;;;;;;;27.00;3.70;;;27.40;34.80;;;;;;4947153;29;20141;-70
2022/05/29 06:16:23;;;;;;;26.52;3.65;;;27.30;34.80;;;;;;4934311;29;20085;-71
2022/05/29 06:31:41;;;;;;;22.93;3.13;;;27.20;34.10;;;;;;5104484;27;21013;-65
2022/05/29 06:34:07;;;;;;;19.98;2.85;;;27.40;35.10;;;;;;5102609;28;20079;-66
2022/05/29 06:36:34;;;;;;;19.33;3.10;;;27.30;34.50;;;;;;5101584;28;20074;-66
2022/05/29 06:39:00;;;;;;;27.63;3.65;;;27.30;34.70;;;;;;5084319;28;20161;-66
2022/05/29 06:41:27;;;;;;;18.70;3.55;;;27.20;34.90;;;;;;5102985;28;20099;-66
2022/05/29 06:43:53;;;;;;;25.23;2.72;;;27.10;35.10;;;;;;5103681;28;20152;-66
2022/05/29 06:46:21;;;;;;;26.33;2.78;;;27.00;35.30;;;;;;5085754;28;20148;-64
2022/05/29 06:48:48;;;;;;;26.42;3.13;;;27.00;35.50;;;;;;5089352;28;20079;-66
2022/05/29 06:51:21;;;;;;;17.10;3.00;;;26.90;35.40;;;;;;5070837;28;20082;-66
2022/05/29 06:53:53;;;;;;;31.00;3.85;;;26.90;35.50;;;;;;5103484;28;20068;-66
2022/05/29 06:56:20;;;;;;;27.70;3.28;;;26.90;35.60;;;;;;5086153;28;20106;-66
2022/05/29 06:58:47;;;;;;;24.38;3.60;;;26.80;35.80;;;;;;5087377;28;20078;-66
2022/05/29 07:07:01;;;;;;;38.95;3.55;;;26.70;36.30;;;;;;5104421;28;20067;-66
2022/05/29 07:09:34;;;;;;;34.25;3.78;;;26.70;36.40;;;;;;5084294;28;20535;-68
2022/05/29 07:12:07;;;;;;;21.25;3.22;;;26.60;36.50;;;;;;5084465;28;20113;-67
2022/05/29 07:14:50;;;;;;;25.20;2.75;;;26.60;36.70;;;;;;5089617;28;20081;-67
2022/05/29 07:17:18;;;;;;;40.40;3.60;;;26.60;36.80;;;;;;5086924;28;20094;-66
2022/05/29 07:19:45;;;;;;;25.65;3.25;;;26.50;37.00;;;;;;5103973;28;20128;-67
2022/05/29 07:22:12;;;;;;;25.88;3.60;;;26.40;37.00;;;;;;5069296;28;20084;-65
2022/05/29 07:24:40;;;;;;;30.10;3.38;;;26.40;37.30;;;;;;5085631;28;20914;-66
2022/05/29 07:27:08;;;;;;;28.42;3.25;;;26.30;37.50;;;;;;5087242;28;20534;-67
2022/05/29 07:29:34;;;;;;;24.52;3.13;;;26.30;37.70;;;;;;5103219;28;20107;-67
2022/05/29 07:32:01;;;;;;;21.92;3.35;;;26.20;37.90;;;;;;5077651;28;20075;-65
2022/05/29 07:34:28;;;;;;;27.80;3.20;;;26.10;38.10;;;;;;5076935;28;20079;-66
2022/05/29 07:37:05;;;;;;;22.23;2.33;;;26.10;38.30;;;;;;5073588;28;20071;-65
2022/05/29 07:39:37;;;;;;;21.58;2.78;;;26.10;38.40;;;;;;5090518;28;20099;-66
2022/05/29 07:44:52;;;;;;;37.15;3.53;;;26.00;38.50;;;;;;5093626;28;20070;-67
2022/05/29 07:47:27;;;;;;;31.70;3.47;;;26.00;38.50;;;;;;5057815;28;20529;-66
2022/05/29 07:49:56;;;;;;;40.05;4.22;;;26.00;38.40;;;;;;5091933;28;20075;-66
2022/05/29 07:52:23;;;;;;;20.75;2.70;;;26.00;38.50;;;;;;5072568;28;20163;-68
2022/05/29 07:54:49;;;;;;;19.48;2.78;;;26.00;38.10;;;;;;5073663;28;20592;-65
2022/05/29 07:57:15;;;;;;;18.38;2.80;;;26.00;37.30;;;;;;5074110;28;20079;-66
2022/05/29 07:59:42;;;;;;;24.92;3.60;;;26.10;37.50;;;;;;5072713;28;20099;-65
2022/05/29 08:02:08;;;;;;;29.42;4.57;;;26.10;37.80;;;;;;5072088;28;20071;-66
2022/05/29 08:04:35;;;;;;;26.23;2.90;;;26.10;38.20;;;;;;5073883;28;20083;-67
2022/05/29 08:07:02;;;;;;;39.38;4.32;;;26.00;38.00;;;;;;5080350;28;20426;-69
2022/05/29 08:09:28;;;;;;;31.38;3.70;;;26.00;38.90;;;;;;5082653;28;20640;-65
2022/05/29 08:11:55;;;;;;;26.58;3.17;;;25.80;38.60;;;;;;5100656;28;20075;-67
2022/05/29 08:14:21;;;;;;;58.03;5.22;;;25.80;38.90;;;;;;5063762;28;20071;-68
2022/05/29 08:16:48;;;;;;;37.03;4.07;;;25.70;39.20;;;;;;5073628;28;20507;-66
2022/05/29 08:19:14;;;;;;;30.15;4.10;;;25.50;39.40;;;;;;5072837;28;20095;-66
2022/05/29 08:21:43;;;;;;;29.42;3.75;;;25.50;39.60;;;;;;5102961;28;20083;-66
2022/05/29 08:32:29;;;;;;;35.72;4.00;;;25.30;39.80;;;;;;5095149;28;19959;-65
2022/05/29 08:34:55;;;;;;;28.88;3.45;;;25.20;39.90;;;;;;5071104;28;20594;-65
2022/05/29 08:37:22;;;;;;;23.10;3.30;;;25.30;40.10;;;;;;5075890;28;20184;-66
2022/05/29 08:40:03;;;;;;;28.40;3.40;;;25.30;40.40;;;;;;5071410;28;20093;-65
2022/05/29 08:42:31;;;;;;;17.60;3.45;;;25.20;40.10;;;;;;5073685;28;20076;-65
2022/05/29 08:44:59;;;;;;;31.60;3.17;;;25.20;40.30;;;;;;5073044;28;20162;-66
2022/05/29 08:47:27;;;;;;;26.20;3.35;;;25.10;40.50;;;;;;5073446;28;20093;-65
2022/05/29 08:49:55;;;;;;;20.55;3.08;;;25.00;40.90;;;;;;5053480;28;20135;-66
2022/05/29 08:52:49;;;;;;;22.45;3.10;;;24.90;41.10;;;;;;5070072;28;20100;-66
2022/05/29 08:55:21;;;;;;;28.15;4.20;;;24.80;41.10;;;;;;5070727;28;20090;-67
2022/05/29 08:58:13;;;;;;;15.77;2.83;;;24.80;41.20;;;;;;5090172;28;20116;-65
2022/05/29 09:01:00;;;;;;;23.20;3.10;;;24.80;41.10;;;;;;5089177;28;20098;-66
2022/05/29 09:03:35;;;;;;;39.45;10.30;;;24.80;40.90;;;;;;5091363;28;20600;-67
2022/05/29 09:06:10;;;;;;;29.00;4.15;;;24.70;40.90;;;;;;5090455;28;20064;-67
2022/05/29 09:08:45;;;;;;;31.48;3.47;;;24.60;41.00;;;;;;5041017;28;20105;-67
2022/05/29 09:11:36;;;;;;;18.30;3.03;;;24.60;41.20;;;;;;5071084;28;20081;-66
2022/05/29 09:14:24;;;;;;;26.52;3.00;;;24.50;41.40;;;;;;5088779;28;20454;-65
2022/05/29 09:17:23;;;;;;;30.27;3.30;;;24.50;41.50;;;;;;5057545;28;20526;-67
2022/05/29 09:19:55;;;;;;;23.67;2.97;;;24.40;41.60;;;;;;5069500;28;20087;-66
2022/05/29 09:22:30;;;;;;;17.20;2.67;;;24.40;42.00;;;;;;5071091;28;20158;-66
2022/05/29 09:25:08;;;;;;;25.17;2.92;;;24.30;42.10;;;;;;5053269;28;20087;-67
2022/05/29 09:27:36;;;;;;;21.17;3.42;;;24.30;42.40;;;;;;5068728;28;20114;-67
2022/05/29 09:30:08;;;;;;;22.50;3.22;;;24.20;42.50;;;;;;5072763;28;20122;-67
2022/05/29 09:32:56;;;;;;;13.98;2.80;;;24.10;42.70;;;;;;5069171;28;20178;-66
2022/05/29 09:35:55;;;;;;;15.13;3.13;;;24.10;42.70;;;;;;5072635;28;20109;-64
2022/05/29 09:38:21;;;;;;;10.48;2.42;;;24.20;42.80;;;;;;5072848;28;20091;-67
2022/05/29 09:41:16;;;;;;;11.75;2.50;;;24.10;42.80;;;;;;5092134;28;20098;-66
2022/05/29 09:44:05;;;;;;;13.45;2.03;;;24.10;42.70;;;;;;5070934;28;21142;-67
2022/05/29 09:46:34;;;;;;;13.07;2.50;;;24.10;42.80;;;;;;5089256;28;20076;-67
2022/05/29 09:52:07;;;;;;;;;;;24.20;42.60;;;;;;5089515;28;20070;-66
2022/05/29 09:54:37;;;;;;;13.63;2.70;;;24.20;42.60;;;;;;5070141;28;19970;-66
2022/05/29 09:57:09;;;;;;;9.00;1.80;;;24.20;42.80;;;;;;5070106;28;20770;-65
2022/05/29 09:59:39;;;;;;;11.85;2.17;;;24.20;42.80;;;;;;5069895;28;20240;-66
2022/05/29 10:02:06;;;;;;;9.27;2.80;;;24.10;43.00;;;;;;5083465;28;20443;-66
2022/05/29 10:04:42;;;;;;;21.25;2.28;;;24.20;43.60;;;;;;5091739;28;20147;-67
2022/05/29 10:07:27;;;;;;;8.13;2.28;;;24.10;43.70;;;;;;5094602;28;20075;-64
2022/05/29 10:10:02;;;;;;;15.43;1.90;;;24.10;43.50;;;;;;5069926;28;20123;-65
2022/05/29 10:12:45;;;;;;;11.00;1.95;;;24.10;43.90;;;;;;5070335;28;20532;-66
2022/05/29 10:15:47;;;;;;;9.63;2.00;;;23.90;43.40;;;;;;5073512;28;20100;-65
2022/05/29 10:18:34;;;;;;;11.85;2.10;;;24.00;43.00;;;;;;5010168;28;20570;-65
2022/05/29 10:21:31;;;;;;;13.70;2.20;;;24.00;42.90;;;;;;5028105;28;20150;-65
2022/05/29 10:24:37;;;;;;;10.77;2.10;;;23.90;42.60;;;;;;5043299;28;20081;-65
2022/05/29 10:27:26;;;;;;;7.55;2.00;;;24.00;42.50;;;;;;5015878;28;20076;-66
2022/05/29 10:30:09;;;;;;;10.10;2.00;;;24.00;42.40;;;;;;5025807;28;20602;-65
2022/05/29 10:32:38;;;;;;;7.65;2.13;;;24.10;42.20;;;;;;5042137;28;20777;-66
2022/05/29 10:35:27;;;;;;;10.20;1.88;;;24.10;42.30;;;;;;5018975;28;20142;-68
2022/05/29 10:37:55;;;;;;;12.43;2.00;;;24.10;42.20;;;;;;5025869;28;20578;-66
2022/05/29 10:40:25;;;;;;;8.57;2.00;;;24.10;42.20;;;;;;5026203;28;20124;-67
2022/05/29 10:42:55;;;;;;;6.65;1.52;;;24.00;42.30;;;;;;5008839;28;20089;-68
2022/05/29 10:45:52;;;;;;;5.35;2.17;;;24.00;42.20;;;;;;5027150;28;20065;-65
2022/05/29 10:48:42;;;;;;;8.25;2.00;;;24.10;42.30;;;;;;5026764;28;20162;-67
2022/05/29 10:51:19;;;;;;;11.18;1.90;;;24.00;42.50;;;;;;5011264;28;20076;-67
2022/05/29 10:53:59;;;;;;;;;;;23.90;42.50;;;;;;4996620;28;20191;-65
2022/05/29 10:57:00;;;;;;;10.32;2.13;;;23.90;42.60;;;;;;5071282;28;19956;-64
2022/05/29 10:59:56;;;;;;;11.63;2.13;;;23.80;42.80;;;;;;5083273;28;20099;-65
2022/05/29 11:05:56;;;;;;;9.20;1.90;;;23.80;42.70;;;;;;5087721;28;20820;-65
2022/05/29 11:08:34;;;;;;;7.15;2.15;;;23.80;42.50;;;;;;5092327;28;20091;-67
2022/05/29 11:11:20;;;;;;;10.40;1.83;;;23.80;42.30;;;;;;5070437;28;20480;-65
2022/05/29 11:13:53;;;;;;;5.28;1.52;;;23.90;42.00;;;;;;5102940;28;20665;-66
2022/05/29 11:16:35;;;;;;;4.80;1.80;;;23.90;42.00;;;;;;5070119;28;20455;-66
2022/05/29 11:19:45;;;;;;;12.05;1.88;;;23.90;42.00;;;;;;5091301;28;20534;-66
2022/05/29 11:22:30;;;;;;;17.00;2.83;;;23.90;41.90;;;;;;5088260;28;20115;-65
2022/05/29 11:25:18;;;;;;;22.63;3.13;;;23.90;41.80;;;;;;5070828;28;20104;-66
2022/05/29 11:28:15;;;;;;;30.08;3.42;;;23.80;41.30;;;;;;5068641;28;20068;-65
2022/05/29 11:30:41;;;;;;;28.20;4.15;;;23.80;41.20;;;;;;5072939;28;20115;-65
2022/05/29 11:33:21;;;;;;;22.75;3.58;;;23.80;41.10;;;;;;5090514;28;20068;-66
2022/05/29 11:36:06;;;;;;;28.80;4.15;;;23.80;41.20;;;;;;5072691;28;20111;-66
2022/05/29 11:39:08;;;;;;;19.45;4.05;;;23.80;41.30;;;;;;5089284;28;20071;-67
2022/05/29 11:41:51;;;;;;;25.70;3.65;;;23.60;41.30;;;;;;5086558;28;20537;-66
2022/05/29 11:44:37;;;;;;;22.05;3.42;;;23.70;41.00;;;;;;5102254;28;20492;-66
2022/05/29 11:53:20;;;;;;;30.38;3.85;;;23.70;40.90;;;;;;5088384;28;20531;-66
2022/05/29 11:55:49;;;;;;;25.55;3.47;;;23.60;41.00;;;;;;5074153;28;20074;-66
2022/05/29 11:58:34;;;;;;;23.92;3.38;;;23.60;40.80;;;;;;5072433;28;20465;-67
2022/05/29 12:01:14;;;;;;;39.33;4.10;;;23.60;40.70;;;;;;5089700;28;20479;-65
2022/05/29 12:03:40;;;;;;;38.20;4.70;;;23.70;40.50;;;;;;5068591;28;20162;-66
2022/05/29 12:06:31;;;;;;;34.15;4.47;;;23.70;40.40;;;;;;5070676;28;20075;-66
2022/05/29 12:09:09;;;;;;;38.60;4.75;;;23.70;40.50;;;;;;5069507;28;20068;-65
2022/05/29 12:11:59;;;;;;;31.52;5.05;;;23.70;40.50;;;;;;5071300;28;20484;-66
2022/05/29 12:14:39;;;;;;;39.35;5.40;;;23.60;40.60;;;;;;5071414;28;20098;-66
2022/05/29 12:17:09;;;;;;;39.05;4.90;;;23.60;40.90;;;;;;5067422;28;20098;-66
2022/05/29 12:19:48;;;;;;;42.83;5.50;;;23.50;41.00;;;;;;5070902;28;20091;-65
2022/05/29 12:22:19;;;;;;;40.30;4.82;;;23.60;41.50;;;;;;5087576;28;20094;-65
2022/05/29 12:24:50;;;;;;;38.35;4.85;;;23.60;41.10;;;;;;5088444;28;20500;-66
2022/05/29 12:27:27;;;;;;;36.92;4.70;;;23.50;41.00;;;;;;5070355;28;20168;-65
2022/05/29 12:30:00;;;;;;;26.08;4.32;;;23.60;40.00;;;;;;5072225;28;20107;-66
2022/05/29 12:32:32;;;;;;;41.35;4.85;;;23.60;39.60;;;;;;5069723;28;20085;-65
2022/05/29 12:35:11;;;;;;;34.78;4.40;;;23.60;39.60;;;;;;5088583;28;20156;-65
2022/05/29 12:37:56;;;;;;;46.13;4.10;;;23.60;39.50;;;;;;5068069;28;20097;-70
2022/05/29 12:40:53;;;;;;;38.30;4.40;;;23.60;39.50;;;;;;5069278;28;20091;-65
2022/05/29 12:43:41;;;;;;;40.45;4.22;;;23.60;39.60;;;;;;5068424;28;20071;-67
2022/05/29 12:46:46;;;;;;;42.85;3.90;;;23.60;39.70;;;;;;5070036;28;20080;-66
2022/05/29 12:49:44;;;;;;;36.63;4.18;;;23.60;39.90;;;;;;5068405;28;20096;-66
2022/05/29 12:52:14;;;;;;;27.45;3.88;;;23.60;40.00;;;;;;5099941;28;20158;-66
2022/05/29 12:54:53;;;;;;;26.73;3.58;;;23.50;40.20;;;;;;5071579;28;20071;-65
2022/05/29 12:57:55;;;;;;;24.63;3.33;;;23.50;40.20;;;;;;5100794;28;20094;-65
2022/05/29 13:00:34;;;;;;;39.40;4.10;;;23.50;40.30;;;;;;5073674;28;20553;-66
2022/05/29 13:03:21;;;;;;;20.88;3.83;;;23.50;40.50;;;;;;5071667;28;20083;-66
2022/05/29 13:06:06;;;;;;;18.63;3.08;;;23.50;40.60;;;;;;5072168;28;20487;-66
2022/05/29 13:09:00;;;;;;;23.67;3.53;;;23.50;40.70;;;;;;5090221;28;20079;-66
2022/05/29 13:11:34;;;;;;;16.42;2.50;;;23.40;41.00;;;;;;5101421;28;20105;-65
2022/05/29 13:14:04;;;;;;;22.80;3.47;;;23.40;41.40;;;;;;5068612;28;20102;-66
2022/05/29 13:16:34;;;;;;;18.98;2.80;;;23.40;41.70;;;;;;5088655;28;20064;-65
2022/05/29 13:19:24;;;;;;;21.08;2.67;;;23.30;41.90;;;;;;5071902;28;20121;-65
2022/05/29 13:22:09;;;;;;;22.17;2.85;;;23.30;42.20;;;;;;5070247;28;20165;-65
2022/05/29 13:24:44;;;;;;;19.58;2.78;;;23.20;42.30;;;;;;5073136;28;20084;-65
2022/05/29 13:27:17;;;;;;;10.55;2.45;;;23.30;41.80;;;;;;5071931;28;20077;-66
2022/05/29 13:29:56;;;;;;;10.90;1.95;;;23.40;41.20;;;;;;5097757;28;20136;-67
2022/05/29 13:32:28;;;;;;;12.15;2.10;;;23.50;40.80;;;;;;5107597;28;20071;-67
2022/05/29 13:35:04;;;;;;;7.03;2.25;;;23.60;40.60;;;;;;5081944;28;20087;-66
2022/05/29 13:37:45;;;;;;;10.93;1.98;;;23.70;41.10;;;;;;5088714;28;20102;-66
2022/05/29 13:40:40;;;;;;;10.10;2.00;;;23.70;40.50;;;;;;5089595;28;20437;-66
2022/05/29 13:43:16;;;;;;;11.10;2.63;;;23.80;40.20;;;;;;5070314;28;20090;-65
2022/05/29 13:45:42;;;;;;;8.65;1.85;;;23.90;40.00;;;;;;5068898;28;20071;-65
2022/05/29 13:48:22;;;;;;;4.18;1.90;;;23.90;40.00;;;;;;5073811;28;20094;-66
2022/05/29 13:50:51;;;;;;;12.45;2.13;;;24.10;39.60;;;;;;5068823;28;20553;-65
2022/05/29 13:53:33;;;;;;;6.57;1.80;;;24.10;39.50;;;;;;5088966;28;20543;-66
2022/05/29 13:56:11;;;;;;;7.88;2.00;;;24.10;39.50;;;;;;5077350;28;20546;-66
2022/05/29 14:04:47;;;;;;;9.70;1.77;;;24.30;39.70;;;;;;5086688;28;20175;-66
2022/05/29 14:07:25;;;;;;;8.95;2.03;;;24.30;39.80;;;;;;5069000;28;20553;-65
2022/05/29 14:10:21;;;;;;;7.82;1.80;;;24.30;39.50;;;;;;5099338;28;20122;-66
2022/05/29 14:13:26;;;;;;;9.07;1.95;;;24.40;39.60;;;;;;5085987;28;20171;-65